Time;durP1;ratioP1;P1;durP2;ratioP2;P2;SDS_P1;SDS_P2;PMS_P1;PMS_P2;Temp;Humidity;BMP_temperature;BMP_pressure;BME280_temperature;BME280_humidity;BME280_pressure;Samples;Min_cycle;Max_cycle;Signal;HPM_P1;HPM_P2
2023/08/24 00:01:45;;;;;;;7.60;6.07;;;;;;;17.51;98.85;97487.03;4971052;28;20587;-61
2023/08/24 00:04:12;;;;;;;11.75;5.95;;;;;;;17.48;99.07;97487.66;4988896;28;20541;-61
2023/08/24 00:06:38;;;;;;;12.13;6.28;;;;;;;17.46;99.14;97481.63;4968941;28;20050;-60
2023/08/24 00:09:05;;;;;;;6.68;5.80;;;;;;;17.44;99.54;97475.66;4992245;28;20035;-61
2023/08/24 00:11:32;;;;;;;9.68;6.45;;;;;;;17.41;99.82;97479.81;4987047;28;20043;-60
2023/08/24 00:13:59;;;;;;;10.05;6.55;;;;;;;17.45;99.64;97476.44;4994813;28;20096;-61
2023/08/24 00:16:25;;;;;;;10.52;5.90;;;;;;;17.39;100.00;97472.97;4968143;28;20047;-59
2023/08/24 00:18:52;;;;;;;8.13;6.88;;;;;;;17.34;100.00;97462.09;4991710;28;20046;-59
2023/08/24 00:21:22;;;;;;;12.52;6.93;;;;;;;17.28;100.00;97459.44;4971377;28;20071;-60
2023/08/24 00:23:50;;;;;;;7.53;6.57;;;;;;;17.20;100.00;97451.88;4988107;28;20057;-59
2023/08/24 00:26:17;;;;;;;8.18;6.55;;;;;;;17.17;100.00;97457.94;5000066;28;20046;-59
2023/08/24 00:28:45;;;;;;;9.63;6.38;;;;;;;17.22;100.00;97468.00;4988476;28;20050;-60
2023/08/24 00:31:12;;;;;;;10.63;6.55;;;;;;;17.11;100.00;97461.84;4972084;28;20069;-60
2023/08/24 00:33:39;;;;;;;9.05;6.25;;;;;;;17.14;100.00;97470.28;4983208;28;20050;-60
2023/08/24 00:36:06;;;;;;;7.47;6.05;;;;;;;17.08;100.00;97465.16;5006359;28;20556;-60
2023/08/24 00:38:33;;;;;;;10.43;6.93;;;;;;;17.05;100.00;97457.53;4979299;28;20046;-60
2023/08/24 00:41:00;;;;;;;9.40;6.57;;;;;;;17.07;100.00;97452.59;4991861;28;20044;-60
2023/08/24 00:43:27;;;;;;;9.77;7.10;;;;;;;17.08;100.00;97449.56;4998233;28;20580;-60
2023/08/24 00:45:58;;;;;;;8.10;6.07;;;;;;;17.14;100.00;97453.06;4968015;28;20131;-59
2023/08/24 00:48:28;;;;;;;9.48;6.10;;;;;;;17.13;100.00;97440.47;4974340;28;20042;-59
2023/08/24 00:51:00;;;;;;;7.72;6.05;;;;;;;17.13;100.00;97437.72;4984425;28;20055;-60
2023/08/24 00:53:29;;;;;;;12.80;6.25;;;;;;;17.14;100.00;97436.66;5000347;28;20537;-59
2023/08/24 00:55:56;;;;;;;8.88;6.15;;;;;;;17.21;100.00;97434.34;4980718;28;20039;-60
2023/08/24 00:58:24;;;;;;;10.30;6.68;;;;;;;17.18;100.00;97425.91;4972708;28;20129;-60
2023/08/24 01:00:53;;;;;;;9.68;5.93;;;;;;;17.21;100.00;97425.34;4973314;28;20081;-60
2023/08/24 01:03:24;;;;;;;7.82;6.07;;;;;;;17.23;100.00;97412.16;4984867;28;20130;-60
2023/08/24 01:05:51;;;;;;;9.70;6.90;;;;;;;17.25;100.00;97418.97;4968759;28;20409;-59
2023/08/24 01:08:18;;;;;;;7.53;6.07;;;;;;;17.26;100.00;97422.53;4989861;28;20034;-61
2023/08/24 01:11:02;;;;;;;8.63;5.82;;;;;;;17.26;100.00;97425.25;5000097;28;20477;-60
2023/08/24 01:13:57;;;;;;;7.97;6.40;;;;;;;17.13;100.00;97421.31;4960597;28;20042;-60
2023/08/24 01:16:28;;;;;;;9.60;6.40;;;;;;;17.11;100.00;97418.91;4974279;28;20126;-60
2023/08/24 01:18:57;;;;;;;8.85;5.72;;;;;;;17.12;100.00;97419.69;4963279;28;20112;-60
2023/08/24 01:21:25;;;;;;;8.02;6.43;;;;;;;17.08;100.00;97416.75;4976599;28;20034;-60
2023/08/24 01:24:30;;;;;;;9.88;6.47;;;;;;;17.05;100.00;97413.75;4981075;28;20049;-59
2023/08/24 01:26:58;;;;;;;9.98;6.72;;;;;;;17.09;100.00;97417.53;4988624;28;20039;-60
2023/08/24 01:29:26;;;;;;;6.80;5.88;;;;;;;17.09;100.00;97414.81;4986101;28;20043;-59
2023/08/24 01:31:53;;;;;;;11.93;6.50;;;;;;;17.11;100.00;97416.16;4980392;28;20045;-59
2023/08/24 01:34:19;;;;;;;9.27;5.68;;;;;;;17.07;100.00;97417.03;4954978;28;20417;-60
2023/08/24 01:36:46;;;;;;;9.35;6.10;;;;;;;17.03;100.00;97416.78;4968401;28;20102;-60
2023/08/24 01:39:42;;;;;;;11.02;6.65;;;;;;;17.06;100.00;97424.41;4977424;28;20049;-60
2023/08/24 01:42:16;;;;;;;8.55;6.45;;;;;;;17.03;100.00;97425.78;4992442;28;20535;-59
2023/08/24 01:44:49;;;;;;;8.48;5.60;;;;;;;17.01;100.00;97430.75;4963994;28;20075;-60
2023/08/24 01:47:17;;;;;;;8.65;6.47;;;;;;;16.97;100.00;97435.19;4967079;28;20039;-60
2023/08/24 01:49:44;;;;;;;9.35;6.60;;;;;;;16.69;100.00;97440.41;4973334;28;20043;-60
2023/08/24 01:52:12;;;;;;;10.88;6.43;;;;;;;16.73;100.00;97436.00;4967282;28;20027;-59
2023/08/24 01:54:39;;;;;;;8.48;6.28;;;;;;;16.75;100.00;97436.53;4981205;28;20042;-62
2023/08/24 01:57:06;;;;;;;7.28;5.65;;;;;;;16.60;100.00;97431.22;4981214;28;20490;-63
2023/08/24 01:59:33;;;;;;;8.77;6.25;;;;;;;16.67;100.00;97434.44;4978608;28;20043;-60
2023/08/24 02:02:00;;;;;;;8.38;6.53;;;;;;;16.51;100.00;97437.31;4975529;28;20506;-60
2023/08/24 02:04:26;;;;;;;7.65;6.20;;;;;;;16.48;100.00;97435.16;4992340;28;20039;-59
2023/08/24 02:06:53;;;;;;;9.00;6.05;;;;;;;16.51;100.00;97431.84;4971485;28;20040;-60
2023/08/24 02:09:20;;;;;;;9.77;6.60;;;;;;;16.47;100.00;97433.53;4988641;28;20053;-60
2023/08/24 02:11:46;;;;;;;9.02;6.72;;;;;;;16.57;100.00;97438.09;4988363;28;20164;-60
2023/08/24 02:14:13;;;;;;;9.65;6.50;;;;;;;16.58;100.00;97434.25;4997467;28;20037;-60
2023/08/24 02:16:39;;;;;;;9.25;6.57;;;;;;;16.66;100.00;97424.59;4974798;28;20688;-60
2023/08/24 02:19:06;;;;;;;8.60;6.30;;;;;;;16.76;100.00;97420.94;4991068;28;20088;-59
2023/08/24 02:21:35;;;;;;;8.85;6.40;;;;;;;16.81;100.00;97420.06;4966552;28;20066;-59
2023/08/24 02:24:03;;;;;;;7.75;6.40;;;;;;;16.76;100.00;97418.19;4986230;28;20049;-60
2023/08/24 02:26:30;;;;;;;11.65;6.95;;;;;;;16.67;100.00;97420.75;4966304;28;20034;-60
2023/08/24 02:28:57;;;;;;;7.88;6.60;;;;;;;16.66;100.00;97416.38;4991523;28;20049;-60
2023/08/24 02:31:24;;;;;;;11.93;7.03;;;;;;;16.62;100.00;97418.88;4989594;28;20038;-60
2023/08/24 02:33:51;;;;;;;14.60;7.63;;;;;;;16.66;100.00;97421.06;4989376;28;20116;-59
2023/08/24 02:36:17;;;;;;;12.00;7.13;;;;;;;16.67;100.00;97412.56;4957650;28;20039;-60
2023/08/24 02:38:44;;;;;;;10.95;7.20;;;;;;;16.68;100.00;97414.19;4987303;28;20051;-59
2023/08/24 02:41:11;;;;;;;9.20;7.28;;;;;;;16.67;100.00;97412.56;4974926;28;20050;-60
2023/08/24 02:43:37;;;;;;;8.98;7.25;;;;;;;16.64;100.00;97405.75;4988301;28;20116;-60
2023/08/24 02:46:06;;;;;;;12.75;7.30;;;;;;;16.61;100.00;97405.50;4957224;28;20494;-61
2023/08/24 02:48:33;;;;;;;12.13;6.97;;;;;;;16.55;100.00;97407.47;4973591;28;20048;-60
2023/08/24 02:51:03;;;;;;;8.68;6.55;;;;;;;16.66;100.00;97410.91;4971645;28;20641;-61
2023/08/24 02:53:29;;;;;;;9.65;7.72;;;;;;;16.65;100.00;97412.03;4999204;28;20125;-60
2023/08/24 02:55:56;;;;;;;7.38;6.60;;;;;;;16.68;100.00;97397.78;4974941;28;20036;-61
2023/08/24 02:58:23;;;;;;;10.07;6.70;;;;;;;16.72;100.00;97403.47;4971585;28;20039;-61
2023/08/24 03:00:50;;;;;;;14.75;8.43;;;;;;;16.70;100.00;97405.69;4976671;28;20049;-60
2023/08/24 03:03:17;;;;;;;9.55;6.97;;;;;;;16.79;100.00;97401.22;4960515;28;20046;-59
2023/08/24 03:05:53;;;;;;;8.50;6.63;;;;;;;16.78;100.00;97397.66;4968529;28;20131;-61
2023/08/24 03:08:20;;;;;;;11.45;6.53;;;;;;;16.73;100.00;97400.44;4978733;28;20038;-61
2023/08/24 03:10:47;;;;;;;12.65;6.95;;;;;;;16.75;100.00;97390.06;4987511;28;20046;-61
2023/08/24 03:13:13;;;;;;;12.23;6.43;;;;;;;16.74;100.00;97396.59;4970332;28;20051;-61
2023/08/24 03:15:41;;;;;;;8.38;6.15;;;;;;;16.80;100.00;97391.09;4972774;28;20051;-61
2023/08/24 03:18:12;;;;;;;8.32;6.05;;;;;;;16.76;100.00;97399.06;4995647;28;20112;-61
2023/08/24 03:20:40;;;;;;;11.65;7.10;;;;;;;16.77;100.00;97392.50;4982534;28;20042;-61
2023/08/24 03:23:06;;;;;;;10.52;6.80;;;;;;;16.74;100.00;97390.34;4972309;28;20122;-62
2023/08/24 03:25:38;;;;;;;12.20;6.70;;;;;;;16.48;100.00;97380.50;5002927;28;20121;-61
2023/08/24 03:28:05;;;;;;;9.57;7.50;;;;;;;16.42;100.00;97375.38;4979462;28;20042;-61
2023/08/24 03:30:32;;;;;;;10.77;7.30;;;;;;;16.44;100.00;97368.53;4978871;28;20064;-58
2023/08/24 03:32:59;;;;;;;12.75;7.00;;;;;;;16.43;100.00;97364.16;4974401;28;20122;-61
2023/08/24 03:35:26;;;;;;;9.77;7.35;;;;;;;16.37;100.00;97365.34;4976011;28;20043;-62
2023/08/24 03:37:52;;;;;;;8.93;6.75;;;;;;;16.37;100.00;97365.34;4981434;28;20043;-61
2023/08/24 03:40:20;;;;;;;9.88;7.70;;;;;;;16.36;100.00;97363.69;4977075;28;20056;-61
2023/08/24 03:42:46;;;;;;;11.73;8.50;;;;;;;16.46;100.00;97360.88;4984248;28;20078;-61
2023/08/24 03:45:13;;;;;;;10.43;7.15;;;;;;;16.61;100.00;97350.84;4979476;28;20133;-62
2023/08/24 03:47:40;;;;;;;11.13;7.72;;;;;;;16.68;100.00;97354.03;4984788;28;20123;-61
2023/08/24 03:50:07;;;;;;;8.65;7.13;;;;;;;16.64;100.00;97347.53;4978373;28;20047;-57
2023/08/24 03:52:34;;;;;;;9.35;6.65;;;;;;;16.71;100.00;97349.91;5005498;28;20073;-58
2023/08/24 03:55:00;;;;;;;13.25;7.10;;;;;;;16.78;100.00;97345.69;4975895;28;20050;-58
2023/08/24 03:57:27;;;;;;;8.60;6.57;;;;;;;16.78;100.00;97334.75;4969749;28;20046;-59
2023/08/24 03:59:54;;;;;;;9.13;6.75;;;;;;;16.73;100.00;97332.09;5008664;28;20120;-60
2023/08/24 04:02:20;;;;;;;9.57;7.50;;;;;;;16.73;100.00;97332.09;5011920;28;20099;-60
2023/08/24 04:04:47;;;;;;;8.90;6.78;;;;;;;16.75;100.00;97338.09;4981205;28;20047;-59
2023/08/24 04:07:14;;;;;;;7.95;6.30;;;;;;;16.87;100.00;97339.56;4977438;28;20049;-61
2023/08/24 04:09:41;;;;;;;9.93;7.10;;;;;;;16.95;100.00;97329.91;4991982;28;20050;-61
2023/08/24 04:12:08;;;;;;;10.90;7.40;;;;;;;16.92;100.00;97327.78;4994901;28;20062;-61
2023/08/24 04:14:34;;;;;;;12.25;6.90;;;;;;;16.91;100.00;97337.88;4969887;28;20091;-61
2023/08/24 04:17:01;;;;;;;8.32;6.60;;;;;;;17.06;100.00;97322.41;4971255;28;20047;-61
2023/08/24 04:19:28;;;;;;;7.95;6.20;;;;;;;17.11;100.00;97317.69;4993506;28;20046;-61
2023/08/24 04:21:54;;;;;;;10.02;7.10;;;;;;;17.15;100.00;97312.44;4981434;28;20042;-61
2023/08/24 04:24:21;;;;;;;8.65;6.05;;;;;;;17.20;100.00;97315.06;5001171;28;20136;-61
2023/08/24 04:26:47;;;;;;;8.15;6.65;;;;;;;17.20;100.00;97323.28;4981555;28;20117;-61
2023/08/24 04:29:14;;;;;;;8.68;6.53;;;;;;;16.95;100.00;97316.25;4988916;28;20612;-61
2023/08/24 04:31:42;;;;;;;9.90;7.13;;;;;;;16.73;100.00;97328.56;4998670;28;20141;-61
2023/08/24 04:34:09;;;;;;;20.58;7.95;;;;;;;16.66;100.00;97328.13;5006615;28;20040;-61
2023/08/24 04:36:35;;;;;;;10.20;6.68;;;;;;;16.55;100.00;97319.22;4985629;28;20030;-61
2023/08/24 04:39:02;;;;;;;11.23;7.50;;;;;;;16.61;100.00;97326.25;4983559;28;20055;-61
2023/08/24 04:41:28;;;;;;;9.80;7.28;;;;;;;16.54;100.00;97326.59;5014207;28;20146;-61
2023/08/24 04:43:55;;;;;;;9.43;6.95;;;;;;;16.56;100.00;97320.84;4980204;28;20042;-61
2023/08/24 04:46:22;;;;;;;8.32;7.15;;;;;;;16.49;100.00;97319.28;4974351;28;20050;-61
2023/08/24 04:48:48;;;;;;;10.65;7.53;;;;;;;16.38;100.00;97320.50;4984333;28;20687;-61
2023/08/24 04:51:15;;;;;;;8.88;7.97;;;;;;;16.38;100.00;97320.50;5009167;28;20163;-61
2023/08/24 04:53:41;;;;;;;19.52;7.70;;;;;;;16.46;100.00;97319.88;4990288;28;20117;-61
2023/08/24 04:56:08;;;;;;;11.20;7.22;;;;;;;16.61;100.00;97320.78;5009747;28;20036;-61
2023/08/24 04:58:34;;;;;;;10.75;7.85;;;;;;;16.78;100.00;97320.28;4982489;28;20039;-61
2023/08/24 05:01:01;;;;;;;9.60;6.70;;;;;;;16.78;100.00;97306.63;4973964;28;20106;-61
2023/08/24 05:03:28;;;;;;;9.50;7.30;;;;;;;16.82;100.00;97312.31;4963420;28;20047;-61
2023/08/24 05:05:54;;;;;;;8.65;7.03;;;;;;;16.95;100.00;97308.84;4993160;28;20050;-61
2023/08/24 05:08:21;;;;;;;10.25;6.85;;;;;;;17.09;100.00;97305.38;4963675;28;20041;-61
2023/08/24 05:10:48;;;;;;;10.70;6.75;;;;;;;17.21;100.00;97305.75;5011824;28;20044;-61
2023/08/24 05:13:14;;;;;;;11.70;6.97;;;;;;;17.26;100.00;97302.13;4980764;28;20672;-61
2023/08/24 05:15:41;;;;;;;9.68;7.50;;;;;;;17.34;100.00;97297.91;4998390;28;20076;-61
2023/08/24 05:18:07;;;;;;;11.18;7.25;;;;;;;17.46;100.00;97302.94;4966641;28;20687;-61
2023/08/24 05:20:34;;;;;;;9.10;6.80;;;;;;;17.62;100.00;97298.78;4992309;28;20038;-61
2023/08/24 05:23:01;;;;;;;10.85;7.35;;;;;;;17.73;100.00;97293.16;4965640;28;20060;-61
2023/08/24 05:25:27;;;;;;;8.73;6.90;;;;;;;17.85;100.00;97296.22;4982163;28;20050;-61
2023/08/24 05:27:54;;;;;;;11.45;6.90;;;;;;;17.87;100.00;97287.72;4965576;28;20043;-61
2023/08/24 05:30:21;;;;;;;8.95;6.68;;;;;;;17.90;100.00;97284.34;4995242;28;20146;-61
2023/08/24 05:32:47;;;;;;;7.90;6.00;;;;;;;17.97;100.00;97286.69;4981585;28;20129;-61
2023/08/24 05:35:14;;;;;;;11.45;6.90;;;;;;;18.04;100.00;97281.63;4968016;28;20054;-61
2023/08/24 05:37:40;;;;;;;9.73;6.38;;;;;;;18.14;100.00;97270.50;4975200;28;20047;-61
2023/08/24 05:40:07;;;;;;;8.63;5.82;;;;;;;18.31;100.00;97274.56;4982931;28;20073;-61
2023/08/24 05:42:36;;;;;;;7.97;6.40;;;;;;;18.43;100.00;97276.81;4984216;28;20050;-62
2023/08/24 05:45:03;;;;;;;8.82;6.38;;;;;;;18.48;100.00;97284.09;4971303;28;20090;-61
2023/08/24 05:47:30;;;;;;;9.30;6.18;;;;;;;18.63;100.00;97280.22;4973343;28;20058;-61
2023/08/24 05:49:56;;;;;;;9.90;6.15;;;;;;;18.80;99.63;97274.88;4981915;28;20044;-61
2023/08/24 05:52:23;;;;;;;9.75;6.00;;;;;;;18.98;99.69;97281.34;4984560;28;20457;-61
2023/08/24 05:54:50;;;;;;;10.20;6.70;;;;;;;19.16;97.54;97280.72;4985607;28;20051;-61
2023/08/24 05:57:16;;;;;;;11.20;5.50;;;;;;;19.30;96.43;97280.66;4971566;28;20062;-61
2023/08/24 05:59:43;;;;;;;7.25;5.63;;;;;;;19.45;96.58;97288.53;4974167;28;20578;-61
2023/08/24 06:02:09;;;;;;;7.88;5.35;;;;;;;19.58;93.13;97281.34;5014818;28;20553;-61
2023/08/24 06:04:36;;;;;;;8.50;5.30;;;;;;;19.74;88.88;97290.00;4974725;28;20034;-61
2023/08/24 06:07:04;;;;;;;8.23;5.28;;;;;;;19.83;91.25;97301.03;4993469;28;20504;-61
2023/08/24 06:09:31;;;;;;;8.20;5.68;;;;;;;19.93;91.68;97301.91;4973842;28;20066;-61
2023/08/24 06:11:58;;;;;;;10.13;4.85;;;;;;;19.95;87.89;97300.44;5002416;28;20044;-61
2023/08/24 06:14:25;;;;;;;8.18;4.95;;;;;;;20.00;88.47;97300.34;4969013;28;20540;-61
2023/08/24 06:16:53;;;;;;;9.18;4.93;;;;;;;20.06;88.91;97298.28;4970967;28;20049;-61
2023/08/24 06:19:19;;;;;;;8.95;5.70;;;;;;;20.11;92.44;97302.81;4966827;28;20112;-61
2023/08/24 06:21:46;;;;;;;9.05;5.50;;;;;;;20.09;93.04;97316.06;4990488;28;20053;-61
2023/08/24 06:24:12;;;;;;;7.47;5.68;;;;;;;20.00;98.35;97316.84;4964837;28;20493;-61
2023/08/24 06:26:39;;;;;;;11.85;5.50;;;;;;;19.97;96.29;97324.88;4973316;28;20085;-61
2023/08/24 06:29:05;;;;;;;9.57;6.28;;;;;;;19.97;99.49;97324.88;4981657;28;20039;-61
2023/08/24 06:31:32;;;;;;;7.78;6.00;;;;;;;19.87;99.30;97340.47;4981837;28;20569;-61
2023/08/24 06:34:00;;;;;;;8.35;4.78;;;;;;;19.88;92.09;97349.53;4972867;28;20050;-61
2023/08/24 06:36:26;;;;;;;8.07;4.97;;;;;;;20.02;90.15;97355.00;4969593;28;20038;-61
2023/08/24 06:38:53;;;;;;;8.35;4.78;;;;;;;20.21;86.12;97368.50;4981419;28;20042;-61
2023/08/24 06:41:19;;;;;;;5.85;4.55;;;;;;;20.33;86.24;97386.34;5007869;28;20075;-61
2023/08/24 06:43:46;;;;;;;8.00;5.65;;;;;;;20.40;88.46;97395.78;4987446;28;20493;-61
2023/08/24 06:46:13;;;;;;;8.18;5.03;;;;;;;20.50;90.73;97389.16;4986006;28;20053;-61
2023/08/24 06:48:43;;;;;;;8.23;5.18;;;;;;;20.68;88.56;97389.25;4986176;28;20114;-61
2023/08/24 06:51:10;;;;;;;11.45;4.78;;;;;;;20.53;87.60;97380.28;4985057;28;20045;-61
2023/08/24 06:53:36;;;;;;;5.90;4.80;;;;;;;20.72;87.38;97370.97;4969604;28;20051;-61
2023/08/24 06:56:03;;;;;;;6.70;4.70;;;;;;;20.90;87.93;97338.81;4975890;28;20082;-61
2023/08/24 06:58:30;;;;;;;5.38;4.20;;;;;;;21.06;86.10;97321.84;4962258;28;20124;-61
2023/08/24 07:00:57;;;;;;;6.18;4.28;;;;;;;21.16;83.10;97323.50;4985501;28;20317;-61
2023/08/24 07:03:24;;;;;;;6.63;4.30;;;;;;;21.28;84.02;97333.84;4989641;28;20046;-61
2023/08/24 07:05:50;;;;;;;6.43;4.70;;;;;;;21.24;84.09;97336.44;4983916;28;20117;-61
2023/08/24 07:08:17;;;;;;;11.45;4.75;;;;;;;21.31;85.04;97322.97;4967919;28;20131;-61
2023/08/24 07:10:44;;;;;;;6.68;4.43;;;;;;;21.37;83.45;97315.38;4976029;28;20055;-61
2023/08/24 07:13:10;;;;;;;9.43;4.30;;;;;;;21.43;81.57;97313.28;4970525;28;20054;-61
2023/08/24 07:15:37;;;;;;;9.55;4.60;;;;;;;21.48;80.82;97320.56;4977288;28;20038;-61
2023/08/24 07:18:05;;;;;;;8.18;3.90;;;;;;;21.51;80.64;97328.16;4973974;28;20480;-61
2023/08/24 07:20:33;;;;;;;9.23;4.40;;;;;;;21.54;79.64;97324.75;5005671;28;20435;-61
2023/08/24 07:22:59;;;;;;;7.80;4.30;;;;;;;21.56;79.88;97328.00;4975977;28;20054;-61
2023/08/24 07:25:27;;;;;;;6.43;3.97;;;;;;;21.66;80.29;97330.41;4989505;28;20075;-61
2023/08/24 07:28:03;;;;;;;7.10;4.45;;;;;;;21.77;80.31;97328.16;4979956;28;20822;-61
2023/08/24 07:30:30;;;;;;;6.13;4.10;;;;;;;21.81;79.17;97326.38;4985546;28;20052;-61
2023/08/24 07:33:01;;;;;;;7.03;3.77;;;;;;;21.87;78.53;97329.78;4966871;28;20051;-61
2023/08/24 07:35:28;;;;;;;7.38;4.20;;;;;;;21.90;80.23;97322.78;4987165;28;20124;-61
2023/08/24 07:37:54;;;;;;;7.63;4.30;;;;;;;21.93;78.58;97311.91;4989984;28;20836;-61
2023/08/24 07:40:21;;;;;;;5.85;4.03;;;;;;;22.06;78.26;97315.59;4991149;28;20050;-61
2023/08/24 07:42:50;;;;;;;7.97;4.28;;;;;;;22.16;78.03;97308.94;4968360;28;20046;-61
2023/08/24 07:45:17;;;;;;;7.97;4.50;;;;;;;22.25;76.67;97316.38;4973491;28;20042;-61
2023/08/24 07:47:44;;;;;;;10.43;3.95;;;;;;;22.26;76.45;97321.53;4980567;28;20054;-61
2023/08/24 07:50:11;;;;;;;8.48;4.47;;;;;;;22.34;75.21;97330.91;4965896;28;20046;-61
2023/08/24 07:52:39;;;;;;;5.50;3.80;;;;;;;22.38;73.70;97336.56;4979253;28;20038;-61
2023/08/24 07:55:07;;;;;;;7.05;4.07;;;;;;;22.47;73.09;97335.41;4973173;28;21430;-61
2023/08/24 07:57:34;;;;;;;8.93;4.60;;;;;;;22.54;73.38;97337.63;4963113;28;20038;-61
2023/08/24 08:00:02;;;;;;;6.65;4.28;;;;;;;22.65;74.14;97338.09;4967622;28;20042;-61
2023/08/24 08:02:38;;;;;;;7.22;4.60;;;;;;;22.70;72.70;97346.19;4970351;28;20054;-61
2023/08/24 08:05:07;;;;;;;8.40;4.72;;;;;;;22.80;72.82;97344.19;4970616;28;20096;-61
2023/08/24 08:07:34;;;;;;;7.68;4.32;;;;;;;22.88;73.16;97332.28;4987408;28;20054;-61
2023/08/24 08:10:01;;;;;;;7.53;4.60;;;;;;;23.00;73.25;97335.13;4972824;28;20057;-62
2023/08/24 08:12:27;;;;;;;8.27;4.25;;;;;;;23.09;72.81;97340.59;4991479;28;20065;-61
2023/08/24 08:14:54;;;;;;;7.10;4.13;;;;;;;23.18;73.30;97323.94;4961504;28;20129;-61
2023/08/24 08:17:20;;;;;;;7.07;5.20;;;;;;;23.20;73.15;97327.19;4964982;28;20050;-61
2023/08/24 08:19:47;;;;;;;8.32;4.70;;;;;;;23.30;73.10;97325.97;4982561;28;20046;-61
2023/08/24 08:22:14;;;;;;;8.07;4.97;;;;;;;23.35;73.19;97334.09;4973013;28;20044;-61
2023/08/24 08:24:40;;;;;;;5.68;4.50;;;;;;;23.33;72.25;97332.78;4969112;28;20050;-61
2023/08/24 08:27:07;;;;;;;7.60;4.78;;;;;;;23.49;72.05;97339.34;4987784;28;20055;-61
2023/08/24 08:29:34;;;;;;;18.38;6.45;;;;;;;23.45;72.31;97343.09;4977020;28;20593;-62
2023/08/24 08:32:01;;;;;;;8.57;4.90;;;;;;;23.45;71.90;97338.41;4985712;28;20050;-62
2023/08/24 08:34:27;;;;;;;7.63;5.43;;;;;;;23.47;72.34;97333.34;4976201;28;20088;-61
2023/08/24 08:36:54;;;;;;;7.22;5.10;;;;;;;23.50;71.55;97335.44;4982212;28;20054;-61
2023/08/24 08:39:20;;;;;;;8.30;5.13;;;;;;;23.55;71.63;97331.63;4966194;28;20066;-62
2023/08/24 08:41:50;;;;;;;9.45;4.97;;;;;;;23.59;71.37;97338.09;4977248;28;20054;-62
2023/08/24 08:44:18;;;;;;;7.05;5.43;;;;;;;23.70;71.45;97323.88;4963344;28;20046;-62
2023/08/24 08:46:46;;;;;;;8.00;4.70;;;;;;;23.78;70.67;97328.50;4978627;28;20074;-62
2023/08/24 08:49:15;;;;;;;8.30;4.93;;;;;;;23.84;70.25;97331.88;4981110;28;20518;-61
2023/08/24 08:51:43;;;;;;;10.52;5.07;;;;;;;23.88;69.32;97330.03;4969680;28;20116;-62
2023/08/24 08:54:09;;;;;;;6.82;4.55;;;;;;;24.00;69.67;97326.50;4972759;28;20092;-61
2023/08/24 08:56:36;;;;;;;9.60;5.15;;;;;;;24.08;68.85;97331.13;4997316;28;20562;-61
2023/08/24 08:59:06;;;;;;;9.18;5.18;;;;;;;24.25;69.54;97335.66;4984176;28;20050;-61
2023/08/24 09:01:33;;;;;;;8.32;5.30;;;;;;;24.35;67.60;97330.81;4976443;28;20044;-62
2023/08/24 09:04:00;;;;;;;6.80;4.85;;;;;;;24.51;67.74;97317.91;4985229;28;20133;-61
2023/08/24 09:06:28;;;;;;;8.88;5.07;;;;;;;24.64;66.76;97309.59;4968568;28;20043;-62
2023/08/24 09:08:55;;;;;;;7.57;4.50;;;;;;;24.68;65.99;97305.00;4965830;28;20035;-61
2023/08/24 09:11:23;;;;;;;10.25;5.07;;;;;;;24.76;64.93;97298.53;4968038;28;20054;-61
2023/08/24 09:13:50;;;;;;;11.05;5.07;;;;;;;24.86;65.89;97299.22;4968071;28;20143;-61
2023/08/24 09:16:17;;;;;;;9.23;4.53;;;;;;;24.86;63.84;97293.69;4966414;28;20152;-61
2023/08/24 09:18:46;;;;;;;11.40;4.80;;;;;;;24.83;64.73;97284.09;5015096;28;20056;-61
2023/08/24 09:21:16;;;;;;;7.93;4.10;;;;;;;24.94;64.96;97287.22;4984771;28;20033;-61
2023/08/24 09:23:47;;;;;;;7.57;3.90;;;;;;;25.05;63.34;97282.00;4973672;28;20070;-61
2023/08/24 09:26:13;;;;;;;8.00;4.65;;;;;;;25.13;63.52;97274.72;5015386;28;20439;-61
2023/08/24 09:28:43;;;;;;;8.23;4.47;;;;;;;25.15;63.38;97277.94;4982279;28;20041;-61
2023/08/24 09:31:12;;;;;;;7.13;4.43;;;;;;;25.23;63.40;97276.16;4986307;28;20050;-62
2023/08/24 09:33:39;;;;;;;8.95;4.72;;;;;;;25.24;63.20;97275.03;4969877;28;20047;-61
2023/08/24 09:36:07;;;;;;;8.93;4.25;;;;;;;25.24;62.51;97278.59;4991515;28;20055;-62
2023/08/24 09:38:35;;;;;;;7.40;4.35;;;;;;;25.32;62.60;97268.53;4981845;28;20082;-62
2023/08/24 09:41:03;;;;;;;8.85;4.10;;;;;;;25.44;62.36;97262.13;4982891;28;20127;-61
2023/08/24 09:43:30;;;;;;;8.85;4.50;;;;;;;25.48;62.45;97243.63;4972284;28;20490;-61
2023/08/24 09:45:57;;;;;;;9.52;4.82;;;;;;;25.59;63.06;97243.94;4986976;28;20142;-61
2023/08/24 09:48:24;;;;;;;6.68;4.07;;;;;;;25.68;62.55;97241.00;4966016;28;20148;-61
2023/08/24 09:50:56;;;;;;;5.80;4.67;;;;;;;25.74;62.59;97231.28;4974401;28;20047;-61
2023/08/24 09:53:24;;;;;;;7.03;4.60;;;;;;;25.78;62.98;97218.31;4963182;28;20282;-61
2023/08/24 09:55:55;;;;;;;5.50;4.00;;;;;;;25.89;61.81;97217.75;4967859;28;20105;-62
2023/08/24 09:58:23;;;;;;;10.10;5.60;;;;;;;26.01;62.08;97214.88;5000294;28;20050;-61
2023/08/24 10:00:50;;;;;;;7.13;4.25;;;;;;;26.14;62.24;97206.47;4977473;28;20059;-61
2023/08/24 10:03:27;;;;;;;12.35;4.50;;;;;;;26.23;61.27;97195.97;4993667;28;20522;-61
2023/08/24 10:05:58;;;;;;;12.43;4.95;;;;;;;26.26;60.52;97184.19;4969439;28;20507;-61
2023/08/24 10:08:36;;;;;;;8.57;4.93;;;;;;;26.29;61.17;97188.22;4991831;28;20529;-62
2023/08/24 10:11:05;;;;;;;8.70;4.72;;;;;;;26.40;60.36;97180.13;4978242;28;20052;-61
2023/08/24 10:13:49;;;;;;;10.93;4.50;;;;;;;26.58;60.40;97175.00;4997131;28;20540;-61
2023/08/24 10:16:18;;;;;;;6.63;4.45;;;;;;;26.68;60.14;97174.41;4973484;28;20045;-62
2023/08/24 10:18:46;;;;;;;7.57;4.28;;;;;;;26.68;59.67;97177.19;4988308;28;20069;-61
2023/08/24 10:21:14;;;;;;;13.05;4.55;;;;;;;26.67;60.46;97158.91;4994537;28;20046;-62
2023/08/24 10:23:43;;;;;;;11.07;4.55;;;;;;;26.80;59.95;97169.88;4967324;28;20138;-62
2023/08/24 10:26:10;;;;;;;8.55;4.55;;;;;;;26.94;59.25;97166.59;4996439;28;20102;-61
2023/08/24 10:28:38;;;;;;;7.60;4.82;;;;;;;27.12;57.97;97165.00;4968476;28;20040;-62
2023/08/24 10:31:06;;;;;;;7.45;4.43;;;;;;;27.25;57.18;97162.06;4986644;28;20503;-61
2023/08/24 10:33:36;;;;;;;9.70;4.25;;;;;;;27.36;56.60;97153.91;5003799;28;20104;-61
2023/08/24 10:36:06;;;;;;;12.38;4.60;;;;;;;27.40;56.25;97155.59;4960354;28;20043;-61
2023/08/24 10:38:39;;;;;;;9.00;4.30;;;;;;;27.53;56.60;97145.09;4997848;28;20034;-61
2023/08/24 10:41:09;;;;;;;5.57;3.80;;;;;;;27.61;55.25;97148.84;4974987;28;20053;-61
2023/08/24 10:43:40;;;;;;;7.40;3.78;;;;;;;27.68;55.09;97134.25;4982778;28;20047;-61
2023/08/24 10:46:15;;;;;;;7.10;4.47;;;;;;;27.82;54.84;97133.66;4968662;28;20054;-61
2023/08/24 10:48:42;;;;;;;7.22;3.97;;;;;;;27.94;54.38;97118.75;4968499;28;20122;-61
2023/08/24 10:51:21;;;;;;;8.23;4.25;;;;;;;27.91;53.92;97120.31;4986515;28;20123;-61
2023/08/24 10:53:59;;;;;;;6.68;4.00;;;;;;;27.86;53.81;97117.03;4979899;28;20129;-61
2023/08/24 10:56:39;;;;;;;6.20;3.97;;;;;;;27.96;53.54;97115.59;4984856;28;20057;-62
2023/08/24 10:59:16;;;;;;;7.38;4.07;;;;;;;27.92;53.61;97102.44;4979867;28;20046;-62
2023/08/24 11:01:55;;;;;;;9.48;3.88;;;;;;;28.08;53.96;97111.78;4972754;28;20096;-62
2023/08/24 11:04:22;;;;;;;8.02;4.18;;;;;;;28.21;53.93;97104.00;4980085;28;20045;-62
2023/08/24 11:06:52;;;;;;;8.63;4.13;;;;;;;28.40;53.08;97108.66;4969141;28;20053;-61
2023/08/24 11:09:19;;;;;;;;;;;;;;;28.46;53.16;97101.59;4971072;28;20127;-62
2023/08/24 11:11:57;;;;;;;9.27;4.07;;;;;;;28.50;53.23;97104.44;4984360;28;19967;-61
2023/08/24 11:14:29;;;;;;;7.20;3.85;;;;;;;28.51;53.37;97094.88;4965672;28;20066;-62
2023/08/24 11:17:02;;;;;;;7.88;4.50;;;;;;;28.59;53.07;97106.94;4979428;28;20044;-61
2023/08/24 11:19:30;;;;;;;8.32;4.18;;;;;;;28.65;53.18;97103.44;4965925;28;20490;-61
2023/08/24 11:21:58;;;;;;;7.80;4.63;;;;;;;28.77;53.27;97093.19;4987697;28;20534;-62
2023/08/24 11:24:25;;;;;;;7.38;4.45;;;;;;;28.85;52.73;97080.97;4988574;28;20215;-61
2023/08/24 11:26:52;;;;;;;6.65;3.95;;;;;;;29.03;52.99;97074.81;4974564;28;20051;-61
2023/08/24 11:29:19;;;;;;;7.80;3.95;;;;;;;29.17;52.91;97065.78;4974624;28;21344;-62
2023/08/24 11:31:47;;;;;;;9.52;4.30;;;;;;;29.30;51.82;97066.31;4979382;28;20053;-62